TimeEEST,TemperatureF,Dew PointF,Humidity,Sea Level PressureIn,VisibilityMPH,Wind Direction,Wind SpeedMPH,Gust SpeedMPH,PrecipitationIn,Events,Conditions,WindDirDegrees,DateUTC
12:50 AM,60.8,59.0,94,29.86,6.2,Calm,Calm,-,N/A,,Partly Cloudy,0,2013-06-13 21:50:00
1:50 AM,60.8,57.2,88,29.86,6.2,Calm,Calm,-,N/A,,Partly Cloudy,0,2013-06-13 22:50:00
2:50 AM,59.0,57.2,94,29.86,6.2,Calm,Calm,-,N/A,,Scattered Clouds,0,2013-06-13 23:50:00
3:50 AM,59.0,57.2,94,29.86,6.2,Calm,Calm,-,N/A,,Scattered Clouds,0,2013-06-14 00:50:00
4:50 AM,59.0,55.4,88,29.83,6.2,Calm,Calm,-,N/A,,Scattered Clouds,0,2013-06-14 01:50:00
5:50 AM,57.2,55.4,94,29.86,6.2,Calm,Calm,-,N/A,,Partly Cloudy,0,2013-06-14 02:50:00
6:20 AM,57.2,55.4,94,29.86,6.2,Calm,Calm,-,N/A,,Partly Cloudy,0,2013-06-14 03:20:00
6:50 AM,57.2,55.4,94,29.86,6.2,Calm,Calm,-,N/A,,Partly Cloudy,0,2013-06-14 03:50:00
7:20 AM,60.8,57.2,88,29.86,6.2,Calm,Calm,-,N/A,,Scattered Clouds,0,2013-06-14 04:20:00
7:50 AM,62.6,59.0,88,29.86,6.2,Calm,Calm,-,N/A,,Scattered Clouds,0,2013-06-14 04:50:00
8:20 AM,66.2,60.8,83,29.86,6.2,NNW,4.6,-,N/A,,Scattered Clouds,340,2013-06-14 05:20:00
8:50 AM,68.0,59.0,73,29.89,6.2,Calm,Calm,-,N/A,,Scattered Clouds,0,2013-06-14 05:50:00
9:20 AM,68.0,60.8,78,29.89,6.2,Calm,Calm,-,N/A,,Scattered Clouds,0,2013-06-14 06:20:00
9:50 AM,71.6,59.0,64,29.89,6.2,Calm,Calm,-,N/A,,Partly Cloudy,0,2013-06-14 06:50:00
10:20 AM,75.2,57.2,53,29.89,6.2,SE,4.6,-,N/A,,Scattered Clouds,140,2013-06-14 07:20:00
10:50 AM,75.2,57.2,53,29.89,6.2,SSE,4.6,-,N/A,,Partly Cloudy,160,2013-06-14 07:50:00
11:20 AM,75.2,59.0,57,29.89,6.2,South,8.1,-,N/A,,Partly Cloudy,170,2013-06-14 08:20:00
11:50 AM,75.2,60.8,61,29.89,6.2,South,8.1,-,N/A,,Partly Cloudy,170,2013-06-14 08:50:00
12:20 PM,77.0,60.8,57,29.89,6.2,South,8.1,-,N/A,,Partly Cloudy,180,2013-06-14 09:20:00
12:50 PM,77.0,60.8,57,29.89,6.2,SSE,9.2,-,N/A,,Scattered Clouds,160,2013-06-14 09:50:00
1:20 PM,78.8,57.2,47,29.89,6.2,SSE,8.1,-,N/A,,Scattered Clouds,160,2013-06-14 10:20:00
1:50 PM,77.0,60.8,57,29.89,6.2,South,11.5,-,N/A,,Scattered Clouds,170,2013-06-14 10:50:00
2:20 PM,73.4,60.8,65,29.89,6.2,South,10.4,-,N/A,,Mostly Cloudy,170,2013-06-14 11:20:00
2:50 PM,69.8,62.6,78,29.92,6.2,SE,6.9,-,N/A,Rain,Light Rain,130,2013-06-14 11:50:00
3:20 PM,71.6,66.2,83,29.92,6.2,SE,6.9,-,N/A,Rain,Light Rain,130,2013-06-14 12:20:00
3:50 PM,75.2,60.8,61,29.92,6.2,SE,6.9,-,N/A,,Mostly Cloudy,140,2013-06-14 12:50:00
4:20 PM,73.4,62.6,69,29.92,4.3,SE,6.9,-,N/A,Rain,Light Rain,130,2013-06-14 13:20:00
4:50 PM,73.4,62.6,69,29.92,4.3,ESE,6.9,-,N/A,Rain,Light Rain,110,2013-06-14 13:50:00
5:20 PM,71.6,60.8,69,29.92,6.2,SE,6.9,-,N/A,,Mostly Cloudy,130,2013-06-14 14:20:00
5:50 PM,71.6,59.0,64,29.92,6.2,SE,6.9,-,N/A,,Mostly Cloudy,140,2013-06-14 14:50:00
6:20 PM,71.6,59.0,64,29.92,6.2,SSE,4.6,-,N/A,,Mostly Cloudy,150,2013-06-14 15:20:00
6:50 PM,75.2,59.0,57,29.92,6.2,Calm,Calm,-,N/A,,Scattered Clouds,0,2013-06-14 15:50:00
7:20 PM,73.4,59.0,61,29.92,6.2,Calm,Calm,-,N/A,,Scattered Clouds,0,2013-06-14 16:20:00
7:50 PM,75.2,59.0,57,29.92,6.2,Calm,Calm,-,N/A,,Scattered Clouds,0,2013-06-14 16:50:00
8:20 PM,71.6,60.8,69,29.92,6.2,Calm,Calm,-,N/A,,Scattered Clouds,0,2013-06-14 17:20:00
8:50 PM,69.8,60.8,73,29.92,6.2,Calm,Calm,-,N/A,,Scattered Clouds,0,2013-06-14 17:50:00
9:50 PM,66.2,60.8,83,29.95,6.2,Calm,Calm,-,N/A,,Partly Cloudy,0,2013-06-14 18:50:00
10:50 PM,66.2,60.8,83,29.95,6.2,Calm,Calm,-,N/A,,Partly Cloudy,0,2013-06-14 19:50:00
11:50 PM,62.6,59.0,88,29.95,-9999.0,Calm,Calm,-,N/A,,Clear,0,2013-06-14 20:50:00